createdAt,value
2018-06-12T05:03:06.743Z,94620.56
2018-06-12T05:08:10.090Z,94632.89
2018-06-12T05:13:14.178Z,94634.01
2018-06-12T05:18:17.507Z,94636.64
2018-06-12T05:23:20.839Z,94633.54
2018-06-12T05:28:24.938Z,94626.67
2018-06-12T05:33:28.280Z,94631.05
2018-06-12T05:38:32.391Z,94652.95
2018-06-12T05:43:35.729Z,94654.41
2018-06-12T05:48:39.842Z,94664.13
2018-06-12T05:53:43.221Z,94669.09
2018-06-12T05:58:46.549Z,94661.61
2018-06-12T06:03:49.890Z,94651.33
2018-06-12T06:08:53.219Z,94658.23
2018-06-12T06:13:56.562Z,94667.64
2018-06-12T06:18:59.886Z,94679.73
2018-06-12T06:24:03.224Z,94671.44
2018-06-12T06:29:06.559Z,94681.75
2018-06-12T06:34:10.677Z,94676.20
2018-06-12T06:39:14.028Z,94673.31
2018-06-12T06:44:17.359Z,94677.70
2018-06-12T06:49:20.709Z,94680.86
2018-06-12T06:54:24.037Z,94682.17
2018-06-12T06:59:28.128Z,94680.69
2018-06-12T07:04:31.450Z,94673.25
2018-06-12T07:09:34.785Z,94676.68
2018-06-12T07:14:38.899Z,94663.99
2018-06-12T07:19:42.229Z,94665.19
2018-06-12T07:24:45.550Z,94659.11
2018-06-12T07:29:49.644Z,94655.64
2018-06-12T07:34:52.978Z,94654.09
2018-06-12T07:39:56.319Z,94660.84
2018-06-12T07:45:00.420Z,94651.41
2018-06-12T07:50:03.760Z,94652.49
2018-06-12T07:55:07.139Z,94667.63
2018-06-12T08:00:10.437Z,94657.91
2018-06-12T08:05:13.780Z,94656.80
2018-06-12T08:10:17.112Z,94658.13
2018-06-12T08:15:21.204Z,94656.08
2018-06-12T08:20:24.546Z,94648.55
2018-06-12T08:25:28.635Z,94646.58
2018-06-12T08:30:32.004Z,94646.94
2018-06-12T08:35:36.123Z,94645.59
2018-06-12T08:40:39.403Z,94641.83
2018-06-12T08:45:42.746Z,94643.71
2018-06-12T08:50:46.836Z,94637.22
2018-06-12T08:55:50.210Z,94642.37
2018-06-12T09:00:53.964Z,94644.27
2018-06-12T09:05:57.306Z,94632.19
2018-06-12T09:11:00.787Z,94622.84
2018-06-12T09:16:04.157Z,94630.88
2018-06-12T09:21:08.263Z,94634.72
2018-06-12T09:26:11.594Z,94641.47
2018-06-12T09:31:15.706Z,94639.80
2018-06-12T09:36:19.185Z,94640.77
2018-06-12T09:41:22.534Z,94638.86
2018-06-12T09:46:25.866Z,94639.09
2018-06-12T09:51:29.959Z,94632.87
2018-06-12T09:56:33.305Z,94629.05
2018-06-12T10:01:37.402Z,94623.80
2018-06-12T10:06:40.735Z,94625.95
2018-06-12T10:11:44.084Z,94622.02
2018-06-12T10:16:47.410Z,94611.30
2018-06-12T10:21:50.742Z,94607.06
2018-06-12T10:26:54.094Z,94600.14
2018-06-12T10:31:58.221Z,94596.95
2018-06-12T10:37:01.568Z,94591.19
2018-06-12T10:42:04.918Z,94590.85
2018-06-12T10:47:08.251Z,94592.27
2018-06-12T10:52:11.583Z,94586.55
2018-06-12T10:57:15.698Z,94587.95
2018-06-12T11:02:19.051Z,94575.86
2018-06-12T11:07:22.388Z,94551.36
2018-06-12T11:12:25.730Z,94549.16
2018-06-12T11:17:29.319Z,94543.91
2018-06-12T11:22:32.671Z,94548.99
2018-06-12T11:27:36.002Z,94542.83
2018-06-12T11:32:39.338Z,94530.52
2018-06-12T11:37:42.671Z,94519.72
2018-06-12T11:42:46.007Z,94517.05
2018-06-12T11:47:49.361Z,94505.83
2018-06-12T11:52:52.699Z,94493.28
2018-06-12T11:57:56.035Z,94479.30
2018-06-12T12:02:59.399Z,94454.13
2018-06-12T12:08:02.722Z,94452.78
2018-06-12T12:13:06.054Z,94447.19
2018-06-12T12:18:09.386Z,94431.70
2018-06-12T12:23:12.739Z,94431.13
2018-06-12T12:28:16.839Z,94422.88
2018-06-12T12:33:20.184Z,94422.88
2018-06-12T12:38:23.530Z,94415.48
2018-06-12T12:43:26.863Z,94424.19
2018-06-12T12:48:30.198Z,94430.89
2018-06-12T12:53:33.530Z,94433.44
2018-06-12T12:58:36.862Z,94427.78
2018-06-12T13:03:40.191Z,94434.61
2018-06-12T13:08:43.520Z,94428.83
2018-06-12T13:13:46.862Z,94417.27
2018-06-12T13:18:50.210Z,94425.92
2018-06-12T13:23:53.558Z,94418.31
2018-06-12T13:28:56.890Z,94408.19
2018-06-12T13:34:00.254Z,94415.93
2018-06-12T13:39:06.808Z,94418.44
2018-06-12T13:44:10.153Z,94417.28
2018-06-12T13:49:13.486Z,94407.06
2018-06-12T13:54:16.817Z,94410.70
2018-06-12T13:59:20.155Z,94405.70
2018-06-12T14:04:23.496Z,94394.27
2018-06-12T14:09:26.838Z,94390.79
2018-06-12T14:14:30.158Z,94388.88
2018-06-12T14:19:33.487Z,94390.98
2018-06-12T14:24:36.822Z,94387.58
2018-06-12T14:29:40.923Z,94397.83
2018-06-12T14:34:44.251Z,94405.50
2018-06-12T14:39:48.354Z,94400.45
2018-06-12T14:44:51.684Z,94408.28
2018-06-12T14:49:55.023Z,94401.45
2018-06-12T14:54:58.359Z,94405.83
2018-06-12T15:00:01.693Z,94402.00
2018-06-12T15:05:05.014Z,94409.34
2018-06-12T15:10:08.338Z,94412.89
2018-06-12T15:15:11.676Z,94416.53
2018-06-12T15:20:15.014Z,94439.51
2018-06-12T15:25:19.158Z,94463.61
2018-06-12T15:30:22.447Z,94497.91
2018-06-12T15:35:26.541Z,94497.22
2018-06-12T15:40:29.886Z,94490.09
2018-06-12T15:45:33.975Z,94472.97
2018-06-12T15:50:37.340Z,94476.92
2018-06-12T15:55:40.711Z,94497.51
2018-06-12T16:00:57.459Z,94498.97
2018-06-12T16:06:00.787Z,94498.13
2018-06-12T16:11:04.916Z,94516.03
2018-06-12T16:16:09.015Z,94507.23
2018-06-12T16:21:12.363Z,94512.95
2018-06-12T16:26:16.478Z,94519.59
2018-06-12T16:31:19.943Z,94497.13
2018-06-12T16:36:23.443Z,94502.30
2018-06-12T16:41:27.054Z,94512.84
2018-06-12T16:46:31.138Z,94510.59
2018-06-12T16:51:34.470Z,94517.14
2018-06-12T16:56:37.830Z,94507.94
2018-06-12T17:01:41.160Z,94483.11
2018-06-12T17:06:44.482Z,94484.77
2018-06-12T17:11:47.819Z,94487.30
2018-06-12T17:16:51.146Z,94487.48
2018-06-12T17:21:55.441Z,94497.83
2018-06-12T17:26:58.799Z,94491.67
2018-06-12T17:32:03.037Z,94489.27
2018-06-12T17:37:07.137Z,94498.36
2018-06-12T17:42:10.473Z,94500.92
2018-06-12T17:47:14.576Z,94498.52
2018-06-12T17:52:17.911Z,94487.64
2018-06-12T17:57:22.019Z,94481.84
2018-06-12T18:02:25.347Z,94468.25
2018-06-12T18:07:28.671Z,94493.31
2018-06-12T18:12:32.006Z,94499.19
2018-06-12T18:17:35.356Z,94505.73
2018-06-12T18:22:38.695Z,94506.42
2018-06-12T18:27:42.017Z,94501.65
2018-06-12T18:32:46.114Z,94497.85
2018-06-12T18:37:49.570Z,94502.19
2018-06-12T18:42:53.803Z,94510.12
2018-06-12T18:47:58.042Z,94512.23
2018-06-12T18:53:01.623Z,94500.97
2018-06-12T18:58:04.969Z,94499.56
2018-06-12T19:03:09.072Z,94488.81
2018-06-12T19:08:12.431Z,94490.89
2018-06-12T19:13:15.897Z,94489.11
2018-06-12T19:18:19.590Z,94485.78
2018-06-12T19:23:22.935Z,94480.94
2018-06-12T19:28:26.263Z,94476.66
2018-06-12T19:33:29.602Z,94472.59
2018-06-12T19:38:32.935Z,94476.30
2018-06-12T19:43:36.271Z,94482.91
2018-06-12T19:48:39.613Z,94491.53
2018-06-12T19:53:43.734Z,94513.22
2018-06-12T19:58:47.803Z,94521.77
2018-06-12T20:03:51.143Z,94533.22
2018-06-12T20:08:57.031Z,94548.12
2018-06-12T20:14:00.367Z,94555.48
2018-06-12T20:19:06.136Z,94550.68
2018-06-12T20:24:10.266Z,94551.19
2018-06-12T20:29:13.604Z,94545.00
2018-06-12T20:34:17.701Z,94547.06
2018-06-12T20:39:21.061Z,94539.53
2018-06-12T20:44:24.706Z,94532.16
2018-06-12T20:49:28.403Z,94514.86
2018-06-12T20:54:31.736Z,94512.73
2018-06-12T20:59:38.230Z,94516.94
2018-06-12T21:04:41.751Z,94512.77
2018-06-12T21:09:45.274Z,94517.85
2018-06-12T21:14:48.605Z,94522.55
2018-06-12T21:19:51.957Z,94525.83
2018-06-12T21:24:55.287Z,94522.46
2018-06-12T21:30:03.439Z,94520.58
2018-06-12T21:35:06.795Z,94520.81
2018-06-12T21:40:20.895Z,94518.28
2018-06-12T21:45:24.233Z,94513.44
2018-06-12T21:50:27.560Z,94524.19
2018-06-12T21:55:30.888Z,94524.34
2018-06-12T22:00:34.258Z,94519.97
2018-06-12T22:05:37.630Z,94526.88
2018-06-12T22:10:41.776Z,94524.86
2018-06-12T22:15:45.112Z,94524.06
2018-06-12T22:20:48.433Z,94520.59
2018-06-12T22:25:51.754Z,94515.42
